Time;durP1;ratioP1;P1;durP2;ratioP2;P2;SDS_P1;SDS_P2;PMS_P1;PMS_P2;Temp;Humidity;BMP_temperature;BMP_pressure;BME280_temperature;BME280_humidity;BME280_pressure;Samples;Min_cycle;Max_cycle;Signal;HPM_P1;HPM_P2
2022/12/19 00:00:26;;;;;;;124.18;47.58;;;;;;;-6.13;74.80;103274.47;1752649;81;21047;-85
2022/12/19 00:02:55;;;;;;;140.03;52.98;;;;;;;-6.14;74.89;103268.77;1747478;80;21104;-84
2022/12/19 00:05:31;;;;;;;141.55;54.77;;;;;;;-6.17;74.84;103273.87;1749180;80;21174;-92
2022/12/19 00:07:56;;;;;;;141.25;57.50;;;;;;;-6.20;74.79;103271.80;1747079;80;21057;-85
2022/12/19 00:10:24;;;;;;;122.55;49.67;;;;;;;-6.24;74.82;103267.00;1753524;81;21051;-85
2022/12/19 00:12:51;;;;;;;111.10;44.58;;;;;;;-6.24;74.91;103254.19;1764840;81;21095;-91
2022/12/19 00:15:18;;;;;;;115.82;47.95;;;;;;;-6.23;74.96;103257.33;1758548;80;21742;-91
2022/12/19 00:17:44;;;;;;;116.08;46.42;;;;;;;-6.26;74.90;103246.28;1753054;80;21068;-92
2022/12/19 00:20:18;;;;;;;108.32;45.63;;;;;;;-6.29;74.87;103255.20;1752767;80;21070;-85
2022/12/19 00:22:45;;;;;;;109.35;44.23;;;;;;;-6.35;74.87;103251.47;1738977;80;21439;-85
2022/12/19 00:25:12;;;;;;;109.25;43.80;;;;;;;-6.39;74.87;103249.59;1753510;81;21300;-91
2022/12/19 00:27:46;;;;;;;106.87;42.67;;;;;;;-6.39;74.98;103246.66;1757428;80;21737;-92
2022/12/19 00:30:13;;;;;;;111.95;42.65;;;;;;;-6.39;75.03;103247.95;1768789;80;21054;-86
2022/12/19 00:32:40;;;;;;;104.65;42.38;;;;;;;-6.36;75.10;103253.48;1767905;79;21075;-85
2022/12/19 00:35:09;;;;;;;103.17;41.73;;;;;;;-6.32;75.20;103246.77;1766541;80;21050;-91
2022/12/19 00:37:36;;;;;;;107.03;40.90;;;;;;;-6.30;75.18;103247.89;1766285;80;21112;-85
2022/12/19 00:40:04;;;;;;;117.80;47.60;;;;;;;-6.28;75.11;103249.38;1767961;80;21725;-85
2022/12/19 00:42:33;;;;;;;115.25;45.23;;;;;;;-6.28;75.18;103241.31;1773768;80;21563;-91
2022/12/19 00:45:32;;;;;;;117.20;44.75;;;;;;;-6.22;75.28;103232.23;1771993;79;21580;-92
2022/12/19 00:47:59;;;;;;;120.97;46.80;;;;;;;-6.15;75.29;103235.26;1769060;80;21024;-91
2022/12/19 00:50:44;;;;;;;111.00;42.75;;;;;;;-6.11;75.16;103234.94;1761643;81;21064;-91
2022/12/19 00:53:19;;;;;;;99.62;43.05;;;;;;;-6.09;75.03;103239.91;1762817;80;21980;-91
2022/12/19 00:55:46;;;;;;;103.00;42.67;;;;;;;-6.13;74.94;103221.91;1767446;80;21117;-91
2022/12/19 00:58:13;;;;;;;106.58;41.13;;;;;;;-6.18;74.85;103213.97;1767565;80;21058;-91
2022/12/19 01:00:44;;;;;;;105.75;43.70;;;;;;;-6.22;74.75;103207.88;1784368;79;21082;-92
2022/12/19 01:03:11;;;;;;;112.77;45.03;;;;;;;-6.30;74.58;103215.84;1769998;79;21074;-85
2022/12/19 01:05:38;;;;;;;107.87;42.00;;;;;;;-6.36;74.57;103210.25;1787549;79;21750;-86
2022/12/19 01:08:11;;;;;;;105.58;43.05;;;;;;;-6.41;74.68;103210.03;1763848;80;21956;-91
2022/12/19 01:10:40;;;;;;;123.40;44.42;;;;;;;-6.42;74.72;103208.17;1766340;80;21535;-84
2022/12/19 01:13:06;;;;;;;112.83;41.02;;;;;;;-6.41;74.87;103204.54;1775847;79;21307;-85
2022/12/19 01:15:33;;;;;;;114.40;43.80;;;;;;;-6.37;74.93;103205.50;1772194;79;21030;-84
2022/12/19 01:18:00;;;;;;;107.60;41.95;;;;;;;-6.31;75.02;103202.45;1766267;80;21781;-85
2022/12/19 01:20:27;;;;;;;116.70;44.25;;;;;;;-6.26;75.04;103201.42;1763943;80;21064;-84
2022/12/19 01:23:02;;;;;;;109.45;43.33;;;;;;;-6.18;75.14;103195.11;1759759;81;21052;-91
2022/12/19 01:25:30;;;;;;;116.77;46.85;;;;;;;-6.11;75.17;103193.55;1771731;79;21071;-92
2022/12/19 01:27:58;;;;;;;109.37;44.18;;;;;;;-6.04;75.17;103189.20;1767204;79;21120;-84
2022/12/19 01:30:25;;;;;;;112.08;44.27;;;;;;;-6.01;75.04;103181.92;1763702;80;23051;-92
2022/12/19 01:32:52;;;;;;;108.27;43.02;;;;;;;-6.01;75.01;103185.41;1768415;80;21054;-84
2022/12/19 01:35:19;;;;;;;114.25;43.83;;;;;;;-6.00;74.94;103177.00;1765164;80;21072;-91
2022/12/19 01:37:46;;;;;;;119.10;44.98;;;;;;;-6.06;74.86;103171.09;1763524;81;21534;-91
2022/12/19 01:40:14;;;;;;;106.55;45.58;;;;;;;-6.03;74.88;103177.88;1765222;80;21111;-91
2022/12/19 01:43:04;;;;;;;109.32;43.90;;;;;;;-6.01;74.85;103179.36;1763838;81;21771;-91
2022/12/19 01:45:37;;;;;;;110.55;44.77;;;;;;;-5.99;74.92;103172.42;1766259;80;21019;-86
2022/12/19 01:48:17;;;;;;;108.65;44.25;;;;;;;-5.95;74.87;103174.65;1767768;80;21041;-84
2022/12/19 01:51:12;;;;;;;105.22;43.52;;;;;;;-5.91;74.87;103170.47;1769442;79;21230;-91
2022/12/19 01:53:43;;;;;;;112.88;44.98;;;;;;;-5.96;74.76;103149.75;1735050;82;21067;-93
2022/12/19 01:56:10;;;;;;;107.00;45.40;;;;;;;-5.83;74.82;103160.29;1729786;81;22654;-84
2022/12/19 01:58:39;;;;;;;111.97;46.00;;;;;;;-5.83;74.68;103153.50;1715100;82;21086;-84
2022/12/19 02:01:18;;;;;;;109.97;44.73;;;;;;;-5.84;74.60;103150.37;1711434;82;21098;-91
2022/12/19 02:03:45;;;;;;;122.95;48.65;;;;;;;-5.85;74.62;103149.83;1703361;82;21812;-83
2022/12/19 02:06:15;;;;;;;113.00;48.92;;;;;;;-5.83;74.62;103143.25;1687116;83;21627;-91
2022/12/19 02:08:43;;;;;;;109.83;44.63;;;;;;;-5.85;74.54;103145.98;1719613;82;21856;-84
2022/12/19 02:11:43;;;;;;;106.80;43.68;;;;;;;-5.88;74.51;103145.57;1712022;82;21067;-91
2022/12/19 02:14:11;;;;;;;107.47;44.13;;;;;;;-5.87;74.54;103144.49;1724195;82;21058;-91
2022/12/19 02:16:49;;;;;;;100.65;42.23;;;;;;;-5.84;74.54;103149.45;1764355;80;21108;-91
2022/12/19 02:19:54;;;;;;;116.60;51.10;;;;;;;-5.83;74.54;103147.47;1769503;80;21087;-91
2022/12/19 02:23:04;;;;;;;116.67;45.45;;;;;;;-5.82;74.54;103141.22;1772965;79;21806;-84
2022/12/19 02:26:00;;;;;;;106.32;43.38;;;;;;;-5.81;74.52;103139.61;1770812;79;21050;-84
2022/12/19 02:29:24;;;;;;;100.58;42.95;;;;;;;-5.79;74.51;103123.67;1770063;80;21835;-93
2022/12/19 02:32:06;;;;;;;108.00;46.58;;;;;;;-5.78;74.51;103117.84;1766790;79;21233;-87
2022/12/19 02:34:48;;;;;;;109.30;46.02;;;;;;;-5.79;74.46;103126.61;1731147;82;21055;-87
2022/12/19 02:42:19;;;;;;;107.40;43.40;;;;;;;-5.78;74.42;103116.89;1710920;83;21615;-91
2022/12/19 02:44:48;;;;;;;96.30;42.20;;;;;;;-5.80;74.38;103112.88;1713738;82;21583;-85
2022/12/19 02:47:15;;;;;;;105.30;46.68;;;;;;;-5.79;74.46;103115.06;1715598;82;21062;-85
2022/12/19 02:49:42;;;;;;;119.25;47.55;;;;;;;-5.79;74.47;103112.13;1703236;82;21139;-85
2022/12/19 02:56:34;;;;;;;107.03;46.88;;;;;;;-5.81;74.38;103103.32;1768298;80;21788;-92
2022/12/19 02:59:41;;;;;;;95.50;43.05;;;;;;;-5.81;74.41;103104.61;1765933;80;21491;-86
2022/12/19 03:06:06;;;;;;;91.00;39.23;;;;;;;-5.92;74.23;103099.74;1773076;79;22004;-85
2022/12/19 03:12:25;;;;;;;77.58;35.33;;;;;;;-6.03;74.28;103075.69;1773599;79;21064;-85
2022/12/19 03:14:53;;;;;;;82.15;37.75;;;;;;;-6.11;74.23;103069.58;1764685;80;21097;-85
2022/12/19 03:17:20;;;;;;;80.72;36.17;;;;;;;-6.16;74.21;103073.18;1779739;79;21039;-85
2022/12/19 03:20:58;;;;;;;83.00;36.05;;;;;;;-6.21;74.22;103076.45;1769869;80;21003;-94
2022/12/19 03:23:26;;;;;;;79.85;34.95;;;;;;;-6.27;74.22;103070.50;1763239;81;21874;-86
2022/12/19 03:26:35;;;;;;;77.70;35.10;;;;;;;-6.33;74.20;103071.00;1733375;80;21008;-93
2022/12/19 03:29:15;;;;;;;72.95;33.65;;;;;;;-6.41;74.16;103066.53;1769132;80;21047;-93
2022/12/19 03:31:42;;;;;;;70.95;32.05;;;;;;;-6.48;74.27;103066.08;1792043;80;21218;-91
2022/12/19 03:34:20;;;;;;;81.02;35.08;;;;;;;-6.51;74.33;103061.86;1772690;80;21121;-85
2022/12/19 03:36:51;;;;;;;75.00;33.02;;;;;;;-6.55;74.41;103059.26;1765516;80;21752;-85
2022/12/19 03:39:25;;;;;;;70.97;31.48;;;;;;;-6.57;74.44;103063.27;1766772;80;21306;-89
2022/12/19 03:45:55;;;;;;;74.40;32.90;;;;;;;-6.66;74.38;103061.69;1656911;85;21718;-84
2022/12/19 03:48:44;;;;;;;74.55;32.67;;;;;;;-6.74;74.39;103058.84;1658177;85;21061;-84
2022/12/19 03:51:34;;;;;;;70.12;32.67;;;;;;;-6.77;74.46;103052.05;1657700;83;21720;-84
2022/12/19 03:54:18;;;;;;;63.35;30.57;;;;;;;-6.82;74.52;103052.71;1654427;84;21284;-84
2022/12/19 03:57:22;;;;;;;72.62;31.85;;;;;;;-6.86;74.53;103055.23;1657682;86;21097;-84
2022/12/19 03:59:56;;;;;;;71.57;33.95;;;;;;;-6.92;74.56;103056.08;1654551;85;22446;-84
2022/12/19 04:02:22;;;;;;;72.75;33.83;;;;;;;-6.95;74.62;103050.55;1656621;86;21103;-84
2022/12/19 04:04:59;;;;;;;70.60;33.28;;;;;;;-6.98;74.67;103043.73;1657772;85;21937;-84
2022/12/19 04:07:25;;;;;;;75.50;34.23;;;;;;;-6.99;74.72;103047.02;1659125;85;21028;-84
2022/12/19 04:09:52;;;;;;;76.87;34.53;;;;;;;-7.02;74.75;103053.92;1656301;85;21069;-87
2022/12/19 04:12:26;;;;;;;72.82;33.92;;;;;;;-7.06;74.72;103055.19;1658029;84;21099;-83
2022/12/19 04:14:53;;;;;;;68.22;34.35;;;;;;;-7.07;74.79;103051.14;1657845;86;22077;-86
2022/12/19 04:17:40;;;;;;;77.90;32.58;;;;;;;-7.08;74.85;103051.84;1658053;86;21772;-86
2022/12/19 04:20:11;;;;;;;74.55;34.80;;;;;;;-7.08;74.90;103055.31;1659736;86;21552;-85
2022/12/19 04:23:03;;;;;;;68.28;31.80;;;;;;;-7.08;74.90;103049.28;1659153;86;21066;-85
2022/12/19 04:25:44;;;;;;;68.07;32.40;;;;;;;-7.10;74.89;103049.44;1657694;86;21065;-85
2022/12/19 04:28:25;;;;;;;75.20;33.30;;;;;;;-7.10;74.89;103049.44;1658674;86;21143;-85
2022/12/19 04:30:52;;;;;;;70.62;32.67;;;;;;;-7.12;74.86;103040.27;1645524;86;21920;-85
2022/12/19 04:33:19;;;;;;;71.72;33.30;;;;;;;-7.15;74.91;103028.70;1657379;86;21960;-85
2022/12/19 04:35:46;;;;;;;75.25;36.23;;;;;;;-7.16;74.96;103023.95;1658543;86;21106;-84
2022/12/19 04:38:13;;;;;;;72.20;32.73;;;;;;;-7.15;75.04;103028.38;1656003;85;21054;-85
2022/12/19 04:40:39;;;;;;;81.95;35.85;;;;;;;-7.16;75.02;103030.35;1655196;86;21050;-85
2022/12/19 04:43:07;;;;;;;78.22;36.55;;;;;;;-7.14;75.09;103025.08;1652173;84;21767;-85
2022/12/19 04:45:34;;;;;;;86.97;35.43;;;;;;;-7.13;75.09;103029.48;1653818;83;21063;-85
2022/12/19 04:48:00;;;;;;;89.37;40.63;;;;;;;-7.13;75.05;103033.66;1654536;83;21184;-85
2022/12/19 04:50:27;;;;;;;116.95;46.10;;;;;;;-7.14;75.04;103033.13;1656529;86;21091;-85
2022/12/19 04:52:54;;;;;;;103.78;42.40;;;;;;;-7.17;75.02;103025.03;1655019;85;21073;-85
2022/12/19 04:55:21;;;;;;;95.53;40.60;;;;;;;-7.17;75.05;103027.25;1657681;83;21914;-85
2022/12/19 04:57:47;;;;;;;85.03;35.60;;;;;;;-7.18;75.07;103024.48;1670416;83;21906;-82
2022/12/19 05:00:15;;;;;;;77.97;34.38;;;;;;;-7.18;75.07;103030.88;1618676;86;21119;-83
2022/12/19 05:02:42;;;;;;;72.90;34.73;;;;;;;-7.16;75.13;103032.00;1610876;86;21058;-84
2022/12/19 05:05:09;;;;;;;78.00;35.08;;;;;;;-7.15;75.16;103039.89;1653440;85;21645;-84
2022/12/19 05:07:35;;;;;;;85.17;37.25;;;;;;;-7.12;75.15;103022.73;1648546;85;21778;-83
2022/12/19 05:10:03;;;;;;;74.82;33.10;;;;;;;-7.12;75.15;103012.48;1646853;85;21926;-84
2022/12/19 05:12:29;;;;;;;92.08;38.80;;;;;;;-7.13;75.08;103008.07;1647542;86;21580;-82
2022/12/19 05:14:56;;;;;;;82.95;36.10;;;;;;;-7.14;75.09;103019.05;1648531;86;21078;-83
2022/12/19 05:17:23;;;;;;;87.80;37.42;;;;;;;-7.15;75.09;103021.03;1648180;86;21083;-83
2022/12/19 05:19:49;;;;;;;84.90;37.58;;;;;;;-7.14;75.15;103018.67;1648159;86;21740;-83
2022/12/19 05:22:16;;;;;;;85.30;36.17;;;;;;;-7.15;75.12;103017.19;1646585;86;20999;-81
2022/12/19 05:24:43;;;;;;;92.15;38.85;;;;;;;-7.15;75.14;103015.58;1645978;86;21065;-83
2022/12/19 05:27:10;;;;;;;92.08;40.73;;;;;;;-7.17;75.11;103009.34;1648704;86;21077;-83
2022/12/19 05:29:37;;;;;;;86.32;36.93;;;;;;;-7.16;75.18;103007.32;1648713;86;22039;-83
2022/12/19 05:32:05;;;;;;;97.85;41.83;;;;;;;-7.19;75.11;103003.06;1637014;86;21162;-83
2022/12/19 05:34:37;;;;;;;103.70;42.70;;;;;;;-7.18;75.17;103007.84;1648809;86;21031;-83
2022/12/19 05:37:03;;;;;;;90.92;39.58;;;;;;;-7.21;75.14;102998.48;1648247;85;21027;-83
2022/12/19 05:39:34;;;;;;;96.85;41.28;;;;;;;-7.19;75.17;103004.71;1648848;85;21085;-90
2022/12/19 05:42:01;;;;;;;102.72;42.23;;;;;;;-7.22;75.13;102996.28;1648190;86;21078;-82
2022/12/19 05:44:30;;;;;;;108.27;43.80;;;;;;;-7.21;75.22;102993.36;1656237;84;22191;-82
2022/12/19 05:46:57;;;;;;;95.15;40.88;;;;;;;-7.20;75.19;102992.66;1660276;85;21097;-82
2022/12/19 05:49:28;;;;;;;89.75;41.55;;;;;;;-7.20;75.20;102986.26;1659818;85;21000;-81
2022/12/19 05:51:53;;;;;;;96.53;41.90;;;;;;;-7.31;75.16;102966.55;1661367;84;21958;-82
2022/12/19 05:54:20;;;;;;;103.30;45.15;;;;;;;-7.19;75.22;102986.80;1658706;86;21400;-80
2022/12/19 05:56:46;;;;;;;89.95;40.45;;;;;;;-7.19;75.17;102986.43;1658506;85;21780;-83
2022/12/19 05:59:13;;;;;;;98.07;41.65;;;;;;;-7.18;75.19;102987.38;1657278;85;22138;-81
2022/12/19 06:01:42;;;;;;;97.67;42.70;;;;;;;-7.21;75.13;102980.19;1661133;86;21034;-80
2022/12/19 06:04:10;;;;;;;99.13;43.65;;;;;;;-7.22;75.14;102967.22;1661862;85;21400;-83
2022/12/19 06:06:39;;;;;;;91.35;41.48;;;;;;;-7.22;75.18;102958.27;1657247;86;21066;-82
2022/12/19 06:09:05;;;;;;;93.20;41.55;;;;;;;-7.22;75.21;102959.17;1662370;84;21113;-80
2022/12/19 06:11:32;;;;;;;98.95;41.73;;;;;;;-7.24;75.17;102950.02;1670715;83;21128;-81
2022/12/19 06:13:59;;;;;;;92.82;40.60;;;;;;;-7.25;75.19;102954.92;1662714;83;21864;-81
2022/12/19 06:16:25;;;;;;;83.75;39.83;;;;;;;-7.25;75.22;102952.00;1670059;83;21080;-83
2022/12/19 06:18:52;;;;;;;85.60;38.92;;;;;;;-7.25;75.23;102940.85;1672717;83;21161;-83
2022/12/19 06:21:20;;;;;;;80.15;37.38;;;;;;;-7.32;75.22;102928.91;1670758;83;22953;-83
2022/12/19 06:23:47;;;;;;;84.58;37.20;;;;;;;-7.25;75.25;102939.57;1661745;86;20977;-80
2022/12/19 06:26:16;;;;;;;88.30;36.88;;;;;;;-7.23;75.37;102934.29;1665100;83;21079;-81
2022/12/19 06:28:42;;;;;;;85.70;39.05;;;;;;;-7.19;75.45;102935.25;1669466;83;21168;-81
2022/12/19 06:31:10;;;;;;;81.35;37.98;;;;;;;-7.16;75.40;102942.42;1662984;83;21571;-81
2022/12/19 06:33:37;;;;;;;82.62;40.15;;;;;;;-7.16;75.31;102933.09;1661068;85;21866;-81
2022/12/19 06:36:13;;;;;;;78.97;35.98;;;;;;;-7.15;75.37;102942.63;1671273;83;21079;-81
2022/12/19 06:38:40;;;;;;;84.07;37.88;;;;;;;-7.12;75.43;102931.86;1671561;83;21086;-81
2022/12/19 06:43:58;;;;;;;70.72;33.58;;;;;;;-7.03;75.51;102929.22;1634248;86;21065;-81
2022/12/19 06:46:25;;;;;;;82.53;37.55;;;;;;;-6.97;75.52;102931.30;1590097;89;23005;-81
2022/12/19 06:48:52;;;;;;;76.97;35.05;;;;;;;-6.91;75.51;102933.73;1617564;88;21170;-81
2022/12/19 06:51:19;;;;;;;75.45;35.68;;;;;;;-6.87;75.46;102934.67;1614986;88;21568;-81
2022/12/19 06:53:45;;;;;;;73.35;34.03;;;;;;;-6.88;75.32;102929.92;1599000;87;21090;-81
2022/12/19 06:56:13;;;;;;;72.00;32.17;;;;;;;-6.87;75.31;102925.37;1616002;88;21082;-81
2022/12/19 06:58:40;;;;;;;67.12;33.08;;;;;;;-6.85;75.28;102921.37;1571779;89;21790;-81
2022/12/19 07:01:07;;;;;;;79.80;36.98;;;;;;;-6.85;75.24;102927.77;1590084;89;22060;-81
2022/12/19 07:03:37;;;;;;;72.05;34.73;;;;;;;-6.82;75.31;102927.61;1625815;87;21129;-81
2022/12/19 07:06:05;;;;;;;71.57;34.10;;;;;;;-6.79;75.28;102926.70;1618718;86;21138;-81
2022/12/19 07:08:31;;;;;;;77.85;35.30;;;;;;;-6.78;75.22;102921.78;1617114;88;21139;-81
2022/12/19 07:10:58;;;;;;;72.53;35.95;;;;;;;-6.78;75.22;102929.84;1608974;88;22612;-81
2022/12/19 07:13:26;;;;;;;75.75;34.75;;;;;;;-6.76;75.22;102924.17;1617421;88;21127;-81
2022/12/19 07:15:53;;;;;;;77.42;36.60;;;;;;;-6.72;75.22;102921.66;1617691;88;21162;-81
2022/12/19 07:18:19;;;;;;;74.58;35.28;;;;;;;-6.71;75.17;102920.95;1618224;88;21911;-81
2022/12/19 07:20:46;;;;;;;69.50;32.50;;;;;;;-6.71;75.12;102910.33;1619406;87;21980;-81
2022/12/19 07:23:16;;;;;;;70.83;34.30;;;;;;;-6.70;75.12;102903.56;1618901;88;21745;-81
2022/12/19 07:25:43;;;;;;;71.40;33.83;;;;;;;-6.67;75.15;102905.24;1618407;87;21840;-80
2022/12/19 07:28:10;;;;;;;84.05;37.85;;;;;;;-6.63;75.20;102899.78;1616052;88;21166;-81
2022/12/19 07:30:36;;;;;;;85.10;39.30;;;;;;;-6.56;75.14;102902.78;1616249;88;21083;-81
2022/12/19 07:33:03;;;;;;;77.60;35.92;;;;;;;-6.51;75.13;102909.05;1617496;87;21879;-82
2022/12/19 07:35:30;;;;;;;74.70;34.33;;;;;;;-6.46;75.12;102893.91;1619097;86;23110;-81
2022/12/19 07:38:04;;;;;;;72.58;34.78;;;;;;;-6.46;75.07;102887.50;1590071;89;21127;-81
2022/12/19 07:40:31;;;;;;;66.97;32.40;;;;;;;-6.35;75.06;102894.34;1612535;88;21668;-80
2022/12/19 07:43:04;;;;;;;67.00;31.93;;;;;;;-6.32;75.01;102886.68;1618559;88;21148;-83
2022/12/19 07:45:31;;;;;;;74.62;33.63;;;;;;;-6.26;74.98;102887.45;1625232;85;21072;-81
2022/12/19 07:48:01;;;;;;;67.78;32.38;;;;;;;-6.21;74.91;102883.26;1609397;87;21932;-81
2022/12/19 07:50:28;;;;;;;76.45;36.23;;;;;;;-6.18;74.81;102884.56;1660607;86;21076;-81
2022/12/19 07:52:57;;;;;;;80.17;35.70;;;;;;;-6.11;74.83;102879.48;1637906;86;22178;-81
2022/12/19 07:55:24;;;;;;;66.45;32.08;;;;;;;-6.06;74.71;102873.67;1658576;85;21089;-83
2022/12/19 07:57:52;;;;;;;63.98;32.17;;;;;;;-6.00;74.70;102874.80;1663252;85;20985;-80
2022/12/19 08:00:20;;;;;;;61.58;30.77;;;;;;;-5.93;74.76;102870.94;1658363;86;22592;-81
2022/12/19 08:02:47;;;;;;;67.40;31.17;;;;;;;-5.89;74.58;102863.83;1658009;86;21011;-81
2022/12/19 08:05:15;;;;;;;67.60;33.75;;;;;;;-5.84;74.48;102864.39;1660330;85;21484;-81
2022/12/19 08:07:42;;;;;;;70.57;33.85;;;;;;;-5.81;74.51;102863.50;1664544;85;21149;-81
2022/12/19 08:10:11;;;;;;;68.47;32.67;;;;;;;-5.77;74.39;102869.56;1660799;85;21066;-81
2022/12/19 08:12:38;;;;;;;62.33;30.97;;;;;;;-5.72;74.41;102854.38;1659386;86;21824;-81
2022/12/19 08:15:05;;;;;;;58.98;29.12;;;;;;;-5.62;74.42;102856.80;1662093;85;21096;-81
2022/12/19 08:17:32;;;;;;;65.03;31.87;;;;;;;-5.56;74.36;102848.57;1661475;86;21106;-81
2022/12/19 08:19:59;;;;;;;59.30;29.18;;;;;;;-5.49;74.31;102848.23;1662317;86;21951;-81
2022/12/19 08:22:25;;;;;;;68.20;32.05;;;;;;;-5.44;74.14;102855.23;1660666;86;21085;-81
2022/12/19 08:24:52;;;;;;;59.33;28.77;;;;;;;-5.42;74.05;102843.83;1636921;86;21738;-81
2022/12/19 08:27:19;;;;;;;59.10;30.23;;;;;;;-5.36;74.08;102844.23;1660226;85;21060;-81
2022/12/19 08:29:46;;;;;;;64.37;30.72;;;;;;;-5.29;74.03;102834.36;1660022;86;21456;-81
2022/12/19 08:32:14;;;;;;;57.73;30.08;;;;;;;-5.24;73.97;102834.53;1659979;85;21580;-83
2022/12/19 08:34:43;;;;;;;63.23;32.30;;;;;;;-5.18;73.94;102833.08;1652587;85;21662;-81
2022/12/19 08:37:10;;;;;;;64.70;30.68;;;;;;;-5.11;73.88;102822.45;1659314;86;21753;-80
2022/12/19 08:39:37;;;;;;;58.08;29.05;;;;;;;-5.04;73.83;102822.83;1660480;86;21671;-81
2022/12/19 08:42:03;;;;;;;60.30;32.35;;;;;;;-4.99;73.75;102817.89;1660811;85;21170;-81
2022/12/19 08:44:30;;;;;;;54.50;28.40;;;;;;;-4.95;73.66;102812.39;1658561;85;21281;-81
2022/12/19 08:46:57;;;;;;;57.80;29.52;;;;;;;-4.85;73.72;102809.64;1659578;85;22181;-81
2022/12/19 08:49:24;;;;;;;61.95;29.05;;;;;;;-4.76;73.62;102795.32;1660520;85;21804;-81
2022/12/19 08:51:52;;;;;;;59.25;29.65;;;;;;;-4.70;73.58;102799.90;1661426;85;21077;-81
2022/12/19 08:54:19;;;;;;;63.28;31.20;;;;;;;-4.62;73.54;102799.14;1664012;85;21591;-81
2022/12/19 08:56:46;;;;;;;55.80;28.90;;;;;;;-4.54;73.52;102785.95;1658427;85;21342;-82
2022/12/19 08:59:13;;;;;;;60.73;30.25;;;;;;;-4.42;73.50;102780.03;1656846;85;21129;-82
2022/12/19 09:01:39;;;;;;;65.08;32.05;;;;;;;-4.34;73.37;102771.55;1660285;86;21743;-82
2022/12/19 09:04:06;;;;;;;57.98;29.40;;;;;;;-4.25;73.31;102761.44;1661335;85;22272;-82
2022/12/19 09:06:33;;;;;;;56.83;28.87;;;;;;;-4.16;73.28;102748.37;1660814;86;21601;-82
2022/12/19 09:09:00;;;;;;;58.40;28.60;;;;;;;-4.06;73.18;102737.10;1660337;85;21128;-82
2022/12/19 09:11:30;;;;;;;53.25;27.82;;;;;;;-3.96;73.12;102733.58;1658037;85;20999;-81
2022/12/19 09:13:59;;;;;;;53.80;28.83;;;;;;;-3.89;72.99;102726.17;1660204;85;21788;-82
2022/12/19 09:16:27;;;;;;;59.67;30.72;;;;;;;-3.82;72.87;102717.52;1659332;86;21040;-81
2022/12/19 09:18:57;;;;;;;56.15;29.30;;;;;;;-3.78;72.78;102720.59;1660254;85;21913;-82
2022/12/19 09:21:27;;;;;;;56.92;30.77;;;;;;;-3.73;72.69;102714.70;1660876;86;21101;-82
2022/12/19 09:23:56;;;;;;;60.65;28.98;;;;;;;-3.70;72.55;102711.17;1660582;85;20978;-82
2022/12/19 09:26:23;;;;;;;52.58;27.85;;;;;;;-3.72;72.26;102708.45;1637801;86;21886;-81
2022/12/19 09:28:50;;;;;;;54.15;28.75;;;;;;;-3.72;72.31;102705.88;1604779;87;21170;-82
2022/12/19 09:31:22;;;;;;;54.80;28.10;;;;;;;-3.67;72.37;102697.76;1604760;89;21129;-81
2022/12/19 09:33:48;;;;;;;54.38;27.82;;;;;;;-3.60;72.38;102694.77;1603798;88;21119;-82
2022/12/19 09:36:18;;;;;;;54.80;26.75;;;;;;;-3.51;72.35;102691.00;1658073;85;21086;-81
2022/12/19 09:38:44;;;;;;;50.25;27.52;;;;;;;-3.45;72.23;102683.98;1660765;85;21762;-81
2022/12/19 09:41:19;;;;;;;50.25;27.62;;;;;;;-3.40;72.16;102679.34;1659640;86;21054;-82
2022/12/19 09:44:10;;;;;;;51.35;27.42;;;;;;;-3.36;72.04;102668.28;1660403;86;21513;-81
2022/12/19 09:47:00;;;;;;;55.67;28.90;;;;;;;-3.30;71.99;102666.77;1657831;86;21149;-81
2022/12/19 09:49:40;;;;;;;52.80;27.00;;;;;;;-3.26;71.89;102672.79;1625261;85;21389;-82
2022/12/19 09:52:21;;;;;;;54.67;28.55;;;;;;;-3.25;71.78;102676.27;1653064;86;21785;-82
2022/12/19 09:54:55;;;;;;;57.15;29.27;;;;;;;-3.24;71.81;102663.95;1656615;85;21043;-81
2022/12/19 09:57:43;;;;;;;;;;;;;;;-3.21;71.73;102657.48;1657019;86;21070;-82
2022/12/19 10:00:15;;;;;;;56.85;29.27;;;;;;;-3.19;71.65;102649.55;1603552;88;20220;-82
2022/12/19 10:02:49;;;;;;;57.23;28.47;;;;;;;-3.16;71.56;102645.09;1605497;89;21153;-82
2022/12/19 10:05:42;;;;;;;57.03;28.73;;;;;;;-3.16;71.53;102638.66;1606088;87;21868;-82
2022/12/19 10:08:18;;;;;;;55.98;28.70;;;;;;;-3.11;71.63;102637.52;1601040;89;21103;-82
2022/12/19 10:11:05;;;;;;;57.93;28.02;;;;;;;-3.06;71.53;102637.66;1601840;89;21106;-80
2022/12/19 10:13:46;;;;;;;52.15;26.33;;;;;;;-3.05;71.45;102629.16;1599142;89;21528;-81
2022/12/19 10:16:30;;;;;;;63.30;29.87;;;;;;;-3.01;71.49;102619.72;1605679;89;21012;-81
2022/12/19 10:19:01;;;;;;;62.27;30.85;;;;;;;-2.98;71.35;102618.78;1600514;89;21890;-81
2022/12/19 10:21:47;;;;;;;54.03;27.52;;;;;;;-3.00;71.19;102609.98;1605529;89;21408;-81
2022/12/19 10:24:55;;;;;;;62.73;29.55;;;;;;;-3.03;71.20;102605.77;1603508;89;21513;-81
2022/12/19 10:27:34;;;;;;;53.42;28.07;;;;;;;-3.00;71.19;102593.23;1597736;89;21059;-81
2022/12/19 10:30:15;;;;;;;61.70;30.40;;;;;;;-2.95;71.22;102590.78;1599115;89;21051;-81
2022/12/19 10:33:18;;;;;;;58.65;30.17;;;;;;;-2.90;71.21;102595.14;1602628;89;21748;-81
2022/12/19 10:35:45;;;;;;;55.35;29.02;;;;;;;-2.82;71.26;102588.23;1602172;88;21118;-81
2022/12/19 10:38:23;;;;;;;62.10;31.12;;;;;;;-2.75;71.16;102581.32;1631822;86;21501;-81
2022/12/19 10:41:04;;;;;;;58.50;28.42;;;;;;;-2.68;71.19;102579.39;1651769;86;21043;-81
2022/12/19 10:44:06;;;;;;;55.67;27.93;;;;;;;-2.62;71.07;102571.05;1655767;86;21114;-81
2022/12/19 10:46:44;;;;;;;53.02;28.75;;;;;;;-2.58;71.04;102571.53;1633312;84;21882;-82
2022/12/19 10:49:20;;;;;;;58.85;29.60;;;;;;;-2.48;71.06;102568.64;1618841;88;21012;-81
2022/12/19 10:51:59;;;;;;;61.80;30.92;;;;;;;-2.43;70.96;102556.78;1590135;90;21050;-81
2022/12/19 10:54:42;;;;;;;54.50;28.80;;;;;;;-2.38;70.84;102549.16;1616721;88;21012;-81
2022/12/19 10:57:25;;;;;;;52.90;28.17;;;;;;;-2.34;70.77;102520.74;1620658;87;21881;-81
2022/12/19 10:59:59;;;;;;;56.13;28.70;;;;;;;-2.27;70.82;102517.13;1616407;88;21577;-81
2022/12/19 11:02:47;;;;;;;53.23;29.20;;;;;;;-2.25;70.70;102502.36;1590207;89;21090;-81
2022/12/19 11:05:42;;;;;;;53.20;29.42;;;;;;;-2.22;70.62;102503.95;1618739;87;21063;-82
2022/12/19 11:08:16;;;;;;;49.90;25.55;;;;;;;-2.16;70.62;102498.52;1618999;87;21019;-81
2022/12/19 11:10:49;;;;;;;52.03;27.52;;;;;;;-2.11;70.55;102492.17;1573105;89;21054;-80
2022/12/19 11:13:25;;;;;;;;;;;;;;;-2.07;70.53;102489.54;1621748;87;22899;-80
2022/12/19 11:15:56;;;;;;;50.80;27.32;;;;;;;-2.07;70.44;102474.06;1617766;87;20232;-83
2022/12/19 11:18:23;;;;;;;51.42;27.37;;;;;;;-2.03;70.42;102473.23;1616645;87;21039;-83
2022/12/19 11:21:18;;;;;;;54.03;28.35;;;;;;;-1.99;70.48;102470.23;1619905;86;21052;-83
2022/12/19 11:24:04;;;;;;;51.35;27.98;;;;;;;-1.93;70.33;102466.08;1618156;88;21135;-82
2022/12/19 11:26:41;;;;;;;60.55;28.35;;;;;;;-1.95;70.31;102454.69;1616273;87;21774;-82
2022/12/19 11:29:27;;;;;;;52.13;27.80;;;;;;;-1.84;70.21;102463.51;1616971;88;21449;-82
2022/12/19 11:31:59;;;;;;;55.03;28.50;;;;;;;-1.81;70.23;102454.80;1620217;87;20996;-83
2022/12/19 11:34:29;;;;;;;55.85;29.30;;;;;;;-1.77;70.24;102447.51;1589093;89;20995;-82
2022/12/19 11:37:21;;;;;;;55.33;28.57;;;;;;;-1.74;70.19;102436.60;1618624;87;20956;-83
2022/12/19 11:39:58;;;;;;;56.85;28.70;;;;;;;-1.68;70.11;102438.89;1618094;87;21757;-82
2022/12/19 11:42:39;;;;;;;51.40;27.75;;;;;;;-1.64;69.98;102434.56;1600976;88;21138;-82
2022/12/19 11:45:29;;;;;;;55.73;29.57;;;;;;;-1.65;69.94;102433.66;1619613;87;22345;-81
2022/12/19 11:48:10;;;;;;;55.35;28.80;;;;;;;-1.61;69.95;102427.14;1658807;85;21444;-82
2022/12/19 11:50:56;;;;;;;53.45;27.00;;;;;;;-1.60;69.84;102418.62;1648623;86;21437;-81
2022/12/19 11:53:37;;;;;;;51.75;28.45;;;;;;;-1.59;69.68;102417.88;1657408;85;21732;-82
2022/12/19 11:56:10;;;;;;;56.10;28.70;;;;;;;-1.56;69.80;102406.54;1658346;85;21046;-82